Time;durP1;ratioP1;P1;durP2;ratioP2;P2;SDS_P1;SDS_P2;PMS_P1;PMS_P2;Temp;Humidity;BMP_temperature;BMP_pressure;BME280_temperature;BME280_humidity;BME280_pressure;Samples;Min_cycle;Max_cycle;Signal;HPM_P1;HPM_P2
2021/05/19 00:04:00;;;;;;;11.57;6.72;;;;;;;;;;8311401;28;20474;-69
2021/05/19 00:08:05;;;;;;;23.75;6.47;;;;;;;;;;8329624;28;20496;-69
2021/05/19 00:12:10;;;;;;;13.55;6.30;;;;;;;;;;8332048;28;20490;-68
2021/05/19 00:16:16;;;;;;;10.70;5.72;;;;;;;;;;8328620;28;20382;-68
2021/05/19 00:20:22;;;;;;;8.65;5.30;;;;;;;;;;8328388;28;20056;-68
2021/05/19 00:24:26;;;;;;;10.35;5.57;;;;;;;;;;8327089;28;20500;-68
2021/05/19 00:28:36;;;;;;;7.47;5.00;;;;;;;;;;8327360;28;20352;-67
2021/05/19 00:32:43;;;;;;;9.90;5.30;;;;;;;;;;8327556;28;20382;-68
2021/05/19 00:36:48;;;;;;;7.38;4.30;;;;;;;;;;8326891;28;20486;-68
2021/05/19 00:40:52;;;;;;;8.38;5.22;;;;;;;;;;8292026;28;20094;-68
2021/05/19 00:44:57;;;;;;;10.77;5.32;;;;;;;;;;8294844;28;20410;-70
2021/05/19 00:49:04;;;;;;;10.45;5.78;;;;;;;;;;8297038;28;20348;-68
2021/05/19 00:53:09;;;;;;;12.60;6.75;;;;;;;;;;8296077;28;20493;-68
2021/05/19 00:57:14;;;;;;;14.15;7.10;;;;;;;;;;8293491;28;20390;-68
2021/05/19 01:01:19;;;;;;;17.00;7.30;;;;;;;;;;8289321;28;20509;-68
2021/05/19 01:05:39;;;;;;;21.02;7.75;;;;;;;;;;8289989;28;20379;-68
2021/05/19 01:09:49;;;;;;;19.73;8.63;;;;;;;;;;8308376;28;20376;-68
2021/05/19 01:13:54;;;;;;;18.00;7.80;;;;;;;;;;8292707;28;20478;-68
2021/05/19 01:18:00;;;;;;;23.77;7.55;;;;;;;;;;8293054;28;20444;-68
2021/05/19 01:22:21;;;;;;;17.60;8.63;;;;;;;;;;8292895;28;20467;-68
2021/05/19 01:26:27;;;;;;;15.10;7.50;;;;;;;;;;8309312;28;20611;-68
2021/05/19 01:30:34;;;;;;;13.68;6.70;;;;;;;;;;8293640;28;20242;-68
2021/05/19 01:34:39;;;;;;;17.40;7.25;;;;;;;;;;8294420;28;20044;-68
2021/05/19 01:38:45;;;;;;;12.68;7.05;;;;;;;;;;8314232;28;20060;-68
2021/05/19 01:42:51;;;;;;;10.65;6.47;;;;;;;;;;8307298;28;20395;-68
2021/05/19 01:47:48;;;;;;;13.35;6.65;;;;;;;;;;8306333;28;20095;-69
2021/05/19 01:51:53;;;;;;;11.63;5.80;;;;;;;;;;8309984;28;20092;-69
2021/05/19 01:56:01;;;;;;;11.20;5.53;;;;;;;;;;8323572;28;20393;-68
2021/05/19 02:00:15;;;;;;;9.18;5.00;;;;;;;;;;8307028;28;20048;-68
2021/05/19 02:04:24;;;;;;;11.48;5.85;;;;;;;;;;8324506;28;20074;-68
2021/05/19 02:08:31;;;;;;;11.48;6.60;;;;;;;;;;8307648;28;20072;-69
2021/05/19 02:12:48;;;;;;;9.32;4.93;;;;;;;;;;8309231;28;20447;-67
2021/05/19 02:16:54;;;;;;;10.15;5.03;;;;;;;;;;8289876;28;20496;-68
2021/05/19 02:21:04;;;;;;;10.27;5.40;;;;;;;;;;8326593;28;20482;-68
2021/05/19 02:25:19;;;;;;;8.57;4.80;;;;;;;;;;8307983;28;20446;-68
2021/05/19 02:29:25;;;;;;;10.48;5.13;;;;;;;;;;8324453;28;20378;-68
2021/05/19 02:33:30;;;;;;;12.50;5.18;;;;;;;;;;8323436;28;20368;-67
2021/05/19 02:37:37;;;;;;;10.52;4.78;;;;;;;;;;8322579;28;20078;-68
2021/05/19 02:41:42;;;;;;;8.73;4.38;;;;;;;;;;8305729;28;20406;-68
2021/05/19 02:45:49;;;;;;;10.18;4.93;;;;;;;;;;8288533;28;20427;-67
2021/05/19 02:49:54;;;;;;;11.02;5.32;;;;;;;;;;8288756;28;20375;-68
2021/05/19 02:54:00;;;;;;;8.73;4.72;;;;;;;;;;8291056;28;20456;-68
2021/05/19 02:58:04;;;;;;;10.02;5.10;;;;;;;;;;8290741;28;20364;-68
2021/05/19 03:02:08;;;;;;;12.68;5.20;;;;;;;;;;8290210;28;20376;-69
2021/05/19 03:06:13;;;;;;;14.27;6.50;;;;;;;;;;8289772;28;20133;-68
2021/05/19 03:10:17;;;;;;;16.45;6.03;;;;;;;;;;8290304;28;20174;-68
2021/05/19 03:14:22;;;;;;;14.85;6.75;;;;;;;;;;8290145;28;20390;-68
2021/05/19 03:18:28;;;;;;;11.65;6.25;;;;;;;;;;8289776;28;20391;-69
2021/05/19 03:22:33;;;;;;;15.05;7.00;;;;;;;;;;8289892;28;20383;-68
2021/05/19 03:26:38;;;;;;;11.75;7.13;;;;;;;;;;8289988;28;20352;-68
2021/05/19 03:30:43;;;;;;;14.27;7.78;;;;;;;;;;8290320;28;20483;-68
2021/05/19 03:34:49;;;;;;;14.63;8.50;;;;;;;;;;8289462;28;20363;-69
2021/05/19 03:38:54;;;;;;;20.83;8.02;;;;;;;;;;8298870;28;20083;-68
2021/05/19 03:42:59;;;;;;;17.23;9.27;;;;;;;;;;8324569;28;20081;-68
2021/05/19 03:47:05;;;;;;;19.73;7.68;;;;;;;;;;8324114;28;20372;-68
2021/05/19 03:51:10;;;;;;;12.52;7.25;;;;;;;;;;8321974;28;20074;-68
2021/05/19 03:55:15;;;;;;;29.30;7.78;;;;;;;;;;8322295;28;20440;-68
2021/05/19 03:59:20;;;;;;;18.38;7.72;;;;;;;;;;8322684;28;20455;-69
2021/05/19 04:03:26;;;;;;;23.42;8.57;;;;;;;;;;8322910;28;20501;-68
2021/05/19 04:07:31;;;;;;;23.15;7.40;;;;;;;;;;8329525;28;20070;-68
2021/05/19 04:11:36;;;;;;;16.92;7.47;;;;;;;;;;8329487;28;20375;-68
2021/05/19 04:15:41;;;;;;;11.10;6.32;;;;;;;;;;8328313;28;20462;-68
2021/05/19 04:19:47;;;;;;;11.73;6.65;;;;;;;;;;8327480;28;20371;-67
2021/05/19 04:23:51;;;;;;;14.23;5.65;;;;;;;;;;8327258;28;20443;-67
2021/05/19 04:27:56;;;;;;;15.63;6.53;;;;;;;;;;8330923;28;20342;-68
2021/05/19 04:32:01;;;;;;;9.10;5.95;;;;;;;;;;8310071;28;20459;-68
2021/05/19 04:36:06;;;;;;;10.82;5.85;;;;;;;;;;8329022;28;20467;-69
2021/05/19 04:40:12;;;;;;;13.43;6.28;;;;;;;;;;8327722;28;20498;-68
2021/05/19 04:44:17;;;;;;;12.18;6.43;;;;;;;;;;8327260;28;20469;-67
2021/05/19 04:48:22;;;;;;;20.95;7.38;;;;;;;;;;8327269;28;20469;-68
2021/05/19 04:52:25;;;;;;;11.57;6.57;;;;;;;;;;8328703;28;20471;-68
2021/05/19 04:56:30;;;;;;;14.02;7.18;;;;;;;;;;8325952;28;20435;-70
2021/05/19 05:00:37;;;;;;;11.90;6.95;;;;;;;;;;8309502;28;20395;-68
2021/05/19 05:04:41;;;;;;;13.30;6.97;;;;;;;;;;8310627;28;20374;-68
2021/05/19 05:08:46;;;;;;;8.73;6.20;;;;;;;;;;8325810;28;20389;-68
2021/05/19 05:12:51;;;;;;;8.48;6.28;;;;;;;;;;8327781;28;20364;-68
2021/05/19 05:16:56;;;;;;;10.65;6.13;;;;;;;;;;8307130;28;20356;-68
2021/05/19 05:21:01;;;;;;;12.40;6.72;;;;;;;;;;8327024;28;20471;-68
2021/05/19 05:25:06;;;;;;;17.85;6.68;;;;;;;;;;8328116;28;20467;-68
2021/05/19 05:29:11;;;;;;;12.43;6.00;;;;;;;;;;8328642;28;20371;-68
2021/05/19 05:33:16;;;;;;;11.73;6.35;;;;;;;;;;8325788;28;20417;-68
2021/05/19 05:37:22;;;;;;;17.35;7.05;;;;;;;;;;8326148;28;20431;-68
2021/05/19 05:41:27;;;;;;;12.82;6.13;;;;;;;;;;8326056;28;20490;-69
2021/05/19 05:45:32;;;;;;;9.70;6.47;;;;;;;;;;8327031;28;20454;-68
2021/05/19 05:49:35;;;;;;;10.15;5.78;;;;;;;;;;8324609;28;20390;-69
2021/05/19 05:53:39;;;;;;;10.05;6.25;;;;;;;;;;8325128;28;20473;-68
2021/05/19 05:57:44;;;;;;;9.02;5.80;;;;;;;;;;8328856;28;20462;-69
2021/05/19 06:01:49;;;;;;;10.00;6.18;;;;;;;;;;8326569;28;20367;-68
2021/05/19 06:05:54;;;;;;;9.05;6.43;;;;;;;;;;8328498;28;20362;-68
2021/05/19 06:09:59;;;;;;;11.90;6.25;;;;;;;;;;8308177;28;20493;-69
2021/05/19 06:14:05;;;;;;;10.43;6.13;;;;;;;;;;8326210;28;20351;-69
2021/05/19 06:18:15;;;;;;;7.55;5.50;;;;;;;;;;8324966;28;20386;-68
2021/05/19 06:22:20;;;;;;;7.10;5.70;;;;;;;;;;8324822;28;20059;-69
2021/05/19 06:26:25;;;;;;;8.40;5.18;;;;;;;;;;8325207;28;20458;-68
2021/05/19 06:30:30;;;;;;;8.43;5.47;;;;;;;;;;8324966;28;20375;-69
2021/05/19 06:34:37;;;;;;;8.13;5.03;;;;;;;;;;8307298;28;20408;-68
2021/05/19 06:38:42;;;;;;;9.32;4.60;;;;;;;;;;8307585;28;20375;-68
2021/05/19 06:42:48;;;;;;;7.82;5.35;;;;;;;;;;8325540;28;20383;-69
2021/05/19 06:46:53;;;;;;;8.93;5.00;;;;;;;;;;8324336;28;20466;-68
2021/05/19 06:50:58;;;;;;;7.40;4.82;;;;;;;;;;8307155;28;20486;-69
2021/05/19 06:55:07;;;;;;;9.47;5.60;;;;;;;;;;8326386;28;20474;-69
2021/05/19 06:59:14;;;;;;;7.45;4.82;;;;;;;;;;8326465;28;20933;-68
2021/05/19 07:03:19;;;;;;;7.55;4.57;;;;;;;;;;8308219;28;20393;-68
2021/05/19 07:07:24;;;;;;;5.70;4.20;;;;;;;;;;8326216;28;20359;-68
2021/05/19 07:11:29;;;;;;;10.48;4.25;;;;;;;;;;8307104;28;20463;-69
2021/05/19 07:15:38;;;;;;;7.30;3.85;;;;;;;;;;8324685;28;20056;-69
2021/05/19 07:19:44;;;;;;;6.00;3.95;;;;;;;;;;8324601;28;20443;-69
2021/05/19 07:23:48;;;;;;;6.93;4.40;;;;;;;;;;8322666;28;20359;-69
2021/05/19 07:27:53;;;;;;;4.35;3.47;;;;;;;;;;8323299;28;20385;-69
2021/05/19 07:31:59;;;;;;;6.75;3.78;;;;;;;;;;8321823;28;20390;-68
2021/05/19 07:36:03;;;;;;;5.13;2.97;;;;;;;;;;8322391;28;20386;-69
2021/05/19 07:40:08;;;;;;;5.18;3.47;;;;;;;;;;8291187;28;20375;-68
2021/05/19 07:44:13;;;;;;;7.50;4.00;;;;;;;;;;8297904;28;20375;-67
2021/05/19 07:48:18;;;;;;;4.75;3.30;;;;;;;;;;8296871;28;20458;-68
2021/05/19 07:52:21;;;;;;;4.95;3.28;;;;;;;;;;8295662;28;20501;-68
2021/05/19 07:56:31;;;;;;;5.95;3.63;;;;;;;;;;8296707;28;20424;-68
2021/05/19 08:00:46;;;;;;;4.20;3.33;;;;;;;;;;8295437;28;20370;-68
2021/05/19 08:04:50;;;;;;;5.13;3.35;;;;;;;;;;8295017;28;20084;-68
2021/05/19 08:08:54;;;;;;;5.72;3.17;;;;;;;;;;8293091;28;20357;-68
2021/05/19 08:12:58;;;;;;;6.03;3.25;;;;;;;;;;8294557;28;20485;-68
2021/05/19 08:17:02;;;;;;;3.50;2.75;;;;;;;;;;8295765;28;20363;-69
2021/05/19 08:21:05;;;;;;;3.45;2.50;;;;;;;;;;8294840;28;20609;-69
2021/05/19 08:25:11;;;;;;;4.18;2.92;;;;;;;;;;8295905;28;20502;-68
2021/05/19 08:29:16;;;;;;;6.93;4.93;;;;;;;;;;8294799;28;20349;-67
2021/05/19 08:33:20;;;;;;;8.77;5.07;;;;;;;;;;8294051;28;20056;-69
2021/05/19 08:37:33;;;;;;;6.97;5.65;;;;;;;;;;8297524;28;20053;-69
2021/05/19 08:41:39;;;;;;;8.75;5.75;;;;;;;;;;8312386;28;20489;-69
2021/05/19 08:45:45;;;;;;;12.00;6.22;;;;;;;;;;8295595;28;20367;-68
2021/05/19 08:49:50;;;;;;;8.13;5.15;;;;;;;;;;8294816;28;20367;-69
2021/05/19 08:53:54;;;;;;;7.78;5.15;;;;;;;;;;8295517;28;20456;-68
2021/05/19 08:57:59;;;;;;;10.75;4.47;;;;;;;;;;8296076;28;20440;-69
2021/05/19 09:02:15;;;;;;;6.43;4.30;;;;;;;;;;8295097;28;20056;-68
2021/05/19 09:06:21;;;;;;;4.22;3.08;;;;;;;;;;8294470;28;20455;-68
2021/05/19 09:10:27;;;;;;;6.93;3.05;;;;;;;;;;8294391;28;20494;-68
2021/05/19 09:14:42;;;;;;;4.95;3.63;;;;;;;;;;8296181;28;20378;-69
2021/05/19 09:18:53;;;;;;;6.47;3.55;;;;;;;;;;8293811;28;20360;-70
2021/05/19 09:23:05;;;;;;;4.95;3.10;;;;;;;;;;8293346;28;20489;-68
2021/05/19 09:27:11;;;;;;;5.30;3.47;;;;;;;;;;8292638;28;20044;-68
2021/05/19 09:31:22;;;;;;;6.72;3.95;;;;;;;;;;8292927;28;20402;-68
2021/05/19 09:35:26;;;;;;;7.85;5.07;;;;;;;;;;8293865;28;20359;-68
2021/05/19 09:39:58;;;;;;;5.15;3.38;;;;;;;;;;8303527;28;20387;-70
2021/05/19 09:44:06;;;;;;;5.82;3.10;;;;;;;;;;8323876;28;20481;-69
2021/05/19 09:48:14;;;;;;;3.92;3.00;;;;;;;;;;8325395;28;20052;-68
2021/05/19 09:52:20;;;;;;;5.75;3.33;;;;;;;;;;8326131;28;20398;-70
2021/05/19 09:56:23;;;;;;;4.00;3.40;;;;;;;;;;8327787;28;20082;-68
2021/05/19 10:00:30;;;;;;;5.63;2.80;;;;;;;;;;8327668;28;20490;-69
2021/05/19 10:04:38;;;;;;;4.20;2.90;;;;;;;;;;8324809;28;20354;-70
2021/05/19 10:08:43;;;;;;;3.90;2.75;;;;;;;;;;8324967;28;20355;-69
2021/05/19 10:12:48;;;;;;;7.03;2.97;;;;;;;;;;8324796;28;20461;-68
2021/05/19 10:17:10;;;;;;;4.50;2.10;;;;;;;;;;8323758;28;20062;-69
2021/05/19 10:21:17;;;;;;;3.28;2.45;;;;;;;;;;8308622;28;20348;-70
2021/05/19 10:25:39;;;;;;;4.40;2.15;;;;;;;;;;8290836;28;20469;-69
2021/05/19 10:29:47;;;;;;;2.55;1.30;;;;;;;;;;8326124;28;20348;-69
2021/05/19 10:33:55;;;;;;;5.68;2.05;;;;;;;;;;8304668;28;20370;-67
2021/05/19 10:38:17;;;;;;;4.80;1.85;;;;;;;;;;8324219;28;20375;-69
2021/05/19 10:42:37;;;;;;;2.13;1.40;;;;;;;;;;8256319;28;20365;-68
2021/05/19 10:46:57;;;;;;;2.63;1.73;;;;;;;;;;8256374;28;20428;-67
2021/05/19 10:51:35;;;;;;;2.20;1.40;;;;;;;;;;8258365;28;20444;-69
2021/05/19 11:00:22;;;;;;;6.20;1.58;;;;;;;;;;8258096;28;20395;-69
2021/05/19 11:04:29;;;;;;;3.90;1.85;;;;;;;;;;8257547;28;20072;-68
2021/05/19 11:08:34;;;;;;;4.57;2.60;;;;;;;;;;8256491;28;20067;-70
2021/05/19 11:12:50;;;;;;;2.00;1.52;;;;;;;;;;8241016;28;20415;-69
2021/05/19 11:21:20;;;;;;;3.65;1.45;;;;;;;;;;8260803;28;20506;-69
2021/05/19 11:25:25;;;;;;;2.22;1.40;;;;;;;;;;8265332;28;20456;-69
2021/05/19 11:29:35;;;;;;;3.05;1.35;;;;;;;;;;8264099;28;20365;-70
2021/05/19 11:34:03;;;;;;;3.72;1.10;;;;;;;;;;8264961;28;20367;-68
2021/05/19 11:38:12;;;;;;;1.98;0.75;;;;;;;;;;8263416;28;20467;-69
2021/05/19 11:42:29;;;;;;;1.17;0.90;;;;;;;;;;8263027;28;20341;-70
2021/05/19 11:46:43;;;;;;;1.00;0.80;;;;;;;;;;8263844;28;20387;-70
2021/05/19 11:50:48;;;;;;;2.72;1.42;;;;;;;;;;8263687;28;20464;-69
2021/05/19 11:54:53;;;;;;;1.88;1.23;;;;;;;;;;8265400;28;20478;-69
2021/05/19 11:58:58;;;;;;;1.80;1.10;;;;;;;;;;8260307;28;20056;-70
2021/05/19 12:03:04;;;;;;;3.13;1.20;;;;;;;;;;8261186;28;20390;-69
2021/05/19 12:07:10;;;;;;;2.17;1.00;;;;;;;;;;8262748;28;20067;-69
2021/05/19 12:11:24;;;;;;;2.38;1.58;;;;;;;;;;8265248;28;20473;-71
2021/05/19 12:15:30;;;;;;;3.30;1.40;;;;;;;;;;8264264;28;20079;-70
2021/05/19 12:19:39;;;;;;;2.83;1.33;;;;;;;;;;8263641;28;20341;-71
2021/05/19 12:23:42;;;;;;;5.70;1.20;;;;;;;;;;8265205;28;20375;-69
2021/05/19 12:27:52;;;;;;;2.90;1.40;;;;;;;;;;8263584;28;20049;-70
2021/05/19 12:32:23;;;;;;;5.60;1.40;;;;;;;;;;8264087;28;20361;-70
2021/05/19 12:36:37;;;;;;;2.05;1.27;;;;;;;;;;8262331;28;20065;-69
2021/05/19 12:40:46;;;;;;;4.82;1.00;;;;;;;;;;8304444;28;20060;-69
2021/05/19 12:44:59;;;;;;;1.63;1.20;;;;;;;;;;8332601;28;20386;-70
2021/05/19 12:49:11;;;;;;;4.72;1.40;;;;;;;;;;8328387;28;20451;-69
2021/05/19 12:53:41;;;;;;;4.03;1.08;;;;;;;;;;8328964;28;20056;-69
2021/05/19 12:57:46;;;;;;;1.70;1.13;;;;;;;;;;8327930;28;20056;-70
2021/05/19 13:01:52;;;;;;;2.47;1.40;;;;;;;;;;8327753;28;20066;-70
2021/05/19 13:06:02;;;;;;;2.70;1.45;;;;;;;;;;8309732;28;20458;-69
2021/05/19 13:10:23;;;;;;;3.20;1.77;;;;;;;;;;8327100;28;20471;-70
2021/05/19 13:14:51;;;;;;;8.20;1.40;;;;;;;;;;8314076;28;20378;-69
2021/05/19 13:19:05;;;;;;;2.88;1.40;;;;;;;;;;8327683;28;20048;-69
2021/05/19 13:23:10;;;;;;;3.10;1.58;;;;;;;;;;8311249;28;20067;-71
2021/05/19 13:27:27;;;;;;;2.47;1.30;;;;;;;;;;8308838;28;20421;-69
2021/05/19 13:31:36;;;;;;;4.53;1.93;;;;;;;;;;8308809;28;20473;-69
2021/05/19 13:40:07;;;;;;;4.35;1.40;;;;;;;;;;8326424;28;20052;-69
2021/05/19 13:44:13;;;;;;;2.38;1.40;;;;;;;;;;8326009;28;20366;-69
2021/05/19 13:48:18;;;;;;;6.63;2.72;;;;;;;;;;8309374;28;20474;-69
2021/05/19 13:52:23;;;;;;;4.38;1.90;;;;;;;;;;8307624;28;20137;-69
2021/05/19 13:56:29;;;;;;;3.67;2.00;;;;;;;;;;8326271;28;20447;-69
2021/05/19 14:00:34;;;;;;;3.15;2.15;;;;;;;;;;8326294;28;20051;-69
2021/05/19 14:04:39;;;;;;;7.75;3.75;;;;;;;;;;8307062;28;20481;-69
2021/05/19 14:08:44;;;;;;;13.90;8.45;;;;;;;;;;8323216;28;20383;-69
2021/05/19 14:12:51;;;;;;;13.57;7.10;;;;;;;;;;8324962;28;20486;-69
2021/05/19 14:17:05;;;;;;;6.28;3.72;;;;;;;;;;8325139;28;20469;-69
2021/05/19 14:29:52;;;;;;;40.22;23.77;;;;;;;;;;8325100;28;20366;-69
2021/05/19 14:33:56;;;;;;;6.93;4.55;;;;;;;;;;8323532;28;20527;-69
2021/05/19 14:38:46;;;;;;;6.60;1.80;;;;;;;;;;8323249;28;20375;-69
2021/05/19 15:00:16;;;;;;;6.88;2.38;;;;;;;;;;8323777;28;20447;-69
2021/05/19 15:04:22;;;;;;;6.38;2.75;;;;;;;;;;8323706;28;20401;-68
2021/05/19 15:08:27;;;;;;;10.32;8.43;;;;;;;;;;8323554;28;20356;-69
2021/05/19 15:12:31;;;;;;;7.72;5.47;;;;;;;;;;8321673;28;20363;-69
2021/05/19 15:16:37;;;;;;;3.75;2.20;;;;;;;;;;8305615;28;20463;-69
2021/05/19 15:20:41;;;;;;;3.47;2.13;;;;;;;;;;8323571;28;20435;-69
2021/05/19 15:24:45;;;;;;;10.50;5.55;;;;;;;;;;8323995;28;20366;-69
2021/05/19 15:28:53;;;;;;;9.38;6.40;;;;;;;;;;8325464;28;20044;-70
2021/05/19 15:32:58;;;;;;;28.27;20.73;;;;;;;;;;8322904;28;20060;-70
2021/05/19 15:37:04;;;;;;;9.80;7.50;;;;;;;;;;8323134;28;20501;-68
2021/05/19 15:41:10;;;;;;;12.07;6.50;;;;;;;;;;8322996;28;20052;-70
2021/05/19 15:45:15;;;;;;;13.68;5.63;;;;;;;;;;8305352;28;20459;-69
2021/05/19 15:49:21;;;;;;;11.38;6.80;;;;;;;;;;8324433;28;20443;-68
2021/05/19 15:53:25;;;;;;;15.90;7.93;;;;;;;;;;8322486;28;20083;-68
2021/05/19 15:57:31;;;;;;;13.57;4.72;;;;;;;;;;8323831;28;20389;-69
2021/05/19 16:01:37;;;;;;;6.72;2.03;;;;;;;;;;8328080;28;20359;-69
2021/05/19 16:05:42;;;;;;;2.97;1.90;;;;;;;;;;8328981;28;20387;-68
2021/05/19 16:09:47;;;;;;;3.60;1.90;;;;;;;;;;8327698;28;20359;-69
2021/05/19 16:13:52;;;;;;;4.75;2.28;;;;;;;;;;8329120;28;20374;-68
2021/05/19 16:17:59;;;;;;;5.60;2.78;;;;;;;;;;8309779;28;20673;-70
2021/05/19 16:22:06;;;;;;;5.00;2.35;;;;;;;;;;8329230;28;20340;-69
2021/05/19 16:26:11;;;;;;;6.88;3.30;;;;;;;;;;8328627;28;20497;-69
2021/05/19 16:31:00;;;;;;;11.63;5.10;;;;;;;;;;8310905;28;20362;-69
2021/05/19 16:35:05;;;;;;;9.45;4.03;;;;;;;;;;8328180;28;20447;-69
2021/05/19 16:39:24;;;;;;;6.03;3.15;;;;;;;;;;8326215;28;20496;-69
2021/05/19 16:43:28;;;;;;;;;;;;;;;;;;8327777;28;20587;-69
2021/05/19 16:47:52;;;;;;;6.95;3.10;;;;;;;;;;8329105;28;20244;-69
2021/05/19 16:52:07;;;;;;;6.40;3.88;;;;;;;;;;8327190;28;20363;-68
2021/05/19 16:56:12;;;;;;;9.90;4.15;;;;;;;;;;8325050;28;20473;-69
2021/05/19 17:00:17;;;;;;;11.15;3.85;;;;;;;;;;8309079;28;20319;-68
2021/05/19 17:08:49;;;;;;;304.10;136.18;;;;;;;;;;8325923;28;20366;-69
2021/05/19 17:12:57;;;;;;;41.95;18.60;;;;;;;;;;8308425;28;20469;-69
2021/05/19 17:17:04;;;;;;;16.95;9.90;;;;;;;;;;8309790;28;20052;-69
2021/05/19 17:21:09;;;;;;;10.00;5.50;;;;;;;;;;8308538;28;20378;-70
2021/05/19 17:25:16;;;;;;;7.10;2.83;;;;;;;;;;8308857;28;20447;-69
2021/05/19 17:29:21;;;;;;;3.05;1.63;;;;;;;;;;8325762;28;20356;-69
2021/05/19 17:33:26;;;;;;;2.90;1.48;;;;;;;;;;8324927;28;20463;-69
2021/05/19 17:37:30;;;;;;;2.50;1.58;;;;;;;;;;8325634;28;20060;-68
2021/05/19 17:41:34;;;;;;;7.53;3.10;;;;;;;;;;8290881;28;20480;-69
2021/05/19 17:45:38;;;;;;;9.50;6.32;;;;;;;;;;8290801;28;20387;-68
2021/05/19 17:49:43;;;;;;;5.55;2.50;;;;;;;;;;8292084;28;20052;-68
2021/05/19 17:53:48;;;;;;;13.10;3.78;;;;;;;;;;8294607;28;20056;-68
2021/05/19 17:57:53;;;;;;;36.10;10.48;;;;;;;;;;8290469;28;20459;-69
2021/05/19 18:01:59;;;;;;;8.38;3.80;;;;;;;;;;8291795;28;20459;-68
2021/05/19 18:06:03;;;;;;;11.43;6.35;;;;;;;;;;8291140;28;20360;-68
2021/05/19 18:10:08;;;;;;;11.18;6.70;;;;;;;;;;8292551;28;20391;-69
2021/05/19 18:14:13;;;;;;;21.52;9.68;;;;;;;;;;8289756;28;20060;-69
2021/05/19 18:18:21;;;;;;;12.52;5.07;;;;;;;;;;8291395;28;20431;-69
2021/05/19 18:22:25;;;;;;;10.82;3.72;;;;;;;;;;8288961;28;20391;-69
2021/05/19 18:26:31;;;;;;;7.88;4.30;;;;;;;;;;8291081;28;20379;-68
2021/05/19 18:30:38;;;;;;;7.10;3.88;;;;;;;;;;8290749;28;20359;-68
2021/05/19 18:35:04;;;;;;;7.88;4.82;;;;;;;;;;8290739;28;20070;-68
2021/05/19 18:39:09;;;;;;;12.05;5.55;;;;;;;;;;8296886;28;20113;-69
2021/05/19 18:43:14;;;;;;;10.20;6.03;;;;;;;;;;8305905;28;20379;-69
2021/05/19 18:47:19;;;;;;;13.93;7.43;;;;;;;;;;8306141;28;20074;-68
2021/05/19 18:51:24;;;;;;;22.42;7.60;;;;;;;;;;8323285;28;20337;-68
2021/05/19 18:55:27;;;;;;;12.32;6.15;;;;;;;;;;8323484;28;20364;-68
2021/05/19 18:59:57;;;;;;;56.72;15.18;;;;;;;;;;8322929;28;20399;-69
2021/05/19 19:04:03;;;;;;;180.20;40.67;;;;;;;;;;8305609;28;20358;-69
2021/05/19 19:08:08;;;;;;;109.75;27.45;;;;;;;;;;8323507;28;20486;-71
2021/05/19 19:12:15;;;;;;;48.72;14.02;;;;;;;;;;8304549;28;20527;-69
2021/05/19 19:16:20;;;;;;;261.77;56.60;;;;;;;;;;8321561;28;20466;-69
2021/05/19 19:20:24;;;;;;;97.78;27.63;;;;;;;;;;8324762;28;20340;-68
2021/05/19 19:24:29;;;;;;;52.15;18.52;;;;;;;;;;8323151;28;20462;-68
2021/05/19 19:28:34;;;;;;;53.03;20.45;;;;;;;;;;8305015;28;20048;-68
2021/05/19 19:32:39;;;;;;;24.60;11.68;;;;;;;;;;8304022;28;20382;-68
2021/05/19 19:36:47;;;;;;;21.33;10.93;;;;;;;;;;8293418;28;20477;-69
2021/05/19 19:40:52;;;;;;;20.05;11.32;;;;;;;;;;8328683;28;20075;-69
2021/05/19 19:45:08;;;;;;;38.38;21.70;;;;;;;;;;8305910;28;20044;-71
2021/05/19 19:49:18;;;;;;;53.63;30.45;;;;;;;;;;8295274;28;20074;-69
2021/05/19 19:53:23;;;;;;;38.85;19.15;;;;;;;;;;8329994;28;20482;-68
2021/05/19 19:57:28;;;;;;;27.38;17.00;;;;;;;;;;8329356;28;20470;-68
2021/05/19 20:01:37;;;;;;;30.33;16.35;;;;;;;;;;8331518;28;20052;-69
2021/05/19 20:05:43;;;;;;;35.67;17.55;;;;;;;;;;8328894;28;20485;-69
2021/05/19 20:09:48;;;;;;;32.83;12.30;;;;;;;;;;8329033;28;20363;-69
2021/05/19 20:13:55;;;;;;;15.43;7.05;;;;;;;;;;8309911;28;20070;-69
2021/05/19 20:17:59;;;;;;;12.40;5.95;;;;;;;;;;8310609;28;20375;-69
2021/05/19 20:22:06;;;;;;;25.27;12.45;;;;;;;;;;8328920;28;20467;-70
2021/05/19 20:26:11;;;;;;;32.03;17.77;;;;;;;;;;8330338;28;20436;-68
2021/05/19 20:30:17;;;;;;;46.40;23.77;;;;;;;;;;8312007;28;20438;-68
2021/05/19 20:34:22;;;;;;;52.50;25.83;;;;;;;;;;8311375;28;20459;-68
2021/05/19 20:38:28;;;;;;;114.90;32.25;;;;;;;;;;8309722;28;20390;-69
2021/05/19 20:42:32;;;;;;;88.78;28.27;;;;;;;;;;8309439;28;20568;-69
2021/05/19 20:46:37;;;;;;;57.22;23.95;;;;;;;;;;8308462;28;20455;-68
2021/05/19 20:50:42;;;;;;;49.08;19.35;;;;;;;;;;8310883;28;20467;-68
2021/05/19 20:54:47;;;;;;;40.08;17.27;;;;;;;;;;8309388;28;20470;-69
2021/05/19 20:58:52;;;;;;;36.60;16.52;;;;;;;;;;8327568;28;20363;-68
2021/05/19 21:02:59;;;;;;;37.03;17.23;;;;;;;;;;8326828;28;20368;-68
2021/05/19 21:07:05;;;;;;;56.53;24.13;;;;;;;;;;8293273;28;20386;-69
2021/05/19 21:11:10;;;;;;;52.92;25.77;;;;;;;;;;8329023;28;20400;-68
2021/05/19 21:15:16;;;;;;;51.30;23.33;;;;;;;;;;8308812;28;20082;-68
2021/05/19 21:19:22;;;;;;;48.13;21.83;;;;;;;;;;8307806;28;20079;-68
2021/05/19 21:23:27;;;;;;;40.15;19.33;;;;;;;;;;8307598;28;20443;-68
2021/05/19 21:27:32;;;;;;;28.60;14.23;;;;;;;;;;8308489;28;20493;-68
2021/05/19 21:31:38;;;;;;;26.23;12.40;;;;;;;;;;8327926;28;20405;-69
2021/05/19 21:35:43;;;;;;;21.45;9.82;;;;;;;;;;8327692;28;20052;-68
2021/05/19 21:39:48;;;;;;;21.92;10.48;;;;;;;;;;8328343;28;20402;-68
2021/05/19 21:43:54;;;;;;;23.58;11.20;;;;;;;;;;8326341;28;20409;-68
2021/05/19 21:47:58;;;;;;;35.78;17.15;;;;;;;;;;8325263;28;20056;-69
2021/05/19 21:52:03;;;;;;;35.95;16.92;;;;;;;;;;8327321;28;20344;-68
2021/05/19 21:56:08;;;;;;;33.70;16.10;;;;;;;;;;8307802;28;20047;-69
2021/05/19 22:00:52;;;;;;;32.75;16.70;;;;;;;;;;8324528;28;20454;-68
2021/05/19 22:05:09;;;;;;;32.70;15.93;;;;;;;;;;8325365;28;20466;-69
2021/05/19 22:09:14;;;;;;;38.80;17.55;;;;;;;;;;8325069;28;20417;-68
2021/05/19 22:13:19;;;;;;;24.20;13.30;;;;;;;;;;8307294;28;20482;-68
2021/05/19 22:17:27;;;;;;;31.73;14.48;;;;;;;;;;8326290;28;20385;-70
2021/05/19 22:21:42;;;;;;;27.50;13.50;;;;;;;;;;8325092;28;20375;-68
2021/05/19 22:30:09;;;;;;;23.38;10.52;;;;;;;;;;8324531;28;20052;-68
2021/05/19 22:34:14;;;;;;;20.33;8.65;;;;;;;;;;8305425;28;20493;-68
2021/05/19 22:38:19;;;;;;;16.75;7.50;;;;;;;;;;8324428;28;20367;-69
2021/05/19 22:42:25;;;;;;;20.77;8.45;;;;;;;;;;8324156;28;20386;-68
2021/05/19 22:46:32;;;;;;;14.68;7.55;;;;;;;;;;8306146;28;20443;-68
2021/05/19 22:50:37;;;;;;;12.40;7.47;;;;;;;;;;8306156;28;20366;-68
2021/05/19 22:54:42;;;;;;;16.55;7.28;;;;;;;;;;8325711;28;20494;-68
2021/05/19 22:58:48;;;;;;;16.75;8.50;;;;;;;;;;8324183;28;20497;-68
2021/05/19 23:02:53;;;;;;;13.70;7.20;;;;;;;;;;8322329;28;20344;-69
2021/05/19 23:06:57;;;;;;;13.98;6.57;;;;;;;;;;8324955;28;20391;-68
2021/05/19 23:11:05;;;;;;;14.55;7.85;;;;;;;;;;8323891;28;20374;-68
2021/05/19 23:15:11;;;;;;;18.27;8.45;;;;;;;;;;8323071;28;20091;-68
2021/05/19 23:19:16;;;;;;;20.90;8.23;;;;;;;;;;8305915;28;20470;-69
2021/05/19 23:23:21;;;;;;;16.67;8.10;;;;;;;;;;8324149;28;20478;-68
2021/05/19 23:27:26;;;;;;;18.42;8.32;;;;;;;;;;8324943;28;20497;-68
2021/05/19 23:31:31;;;;;;;18.42;8.18;;;;;;;;;;8323123;28;20459;-68
2021/05/19 23:35:36;;;;;;;16.50;8.30;;;;;;;;;;8323603;28;20390;-68
2021/05/19 23:39:40;;;;;;;18.40;9.65;;;;;;;;;;8323657;28;20450;-68
2021/05/19 23:43:46;;;;;;;18.35;9.10;;;;;;;;;;8305287;28;20356;-69
2021/05/19 23:47:51;;;;;;;22.60;9.52;;;;;;;;;;8324943;28;20481;-68
2021/05/19 23:51:56;;;;;;;22.55;9.98;;;;;;;;;;8305269;28;20500;-68
2021/05/19 23:56:01;;;;;;;23.27;9.93;;;;;;;;;;8322889;28;20354;-68
